Time;durP1;ratioP1;P1;durP2;ratioP2;P2;SDS_P1;SDS_P2;PMS_P1;PMS_P2;Temp;Humidity;BMP_temperature;BMP_pressure;BME280_temperature;BME280_humidity;BME280_pressure;Samples;Min_cycle;Max_cycle;Signal;HPM_P1;HPM_P2
2023/07/26 00:01:02;;;;;;;3.60;2.70;;;;;;;15.05;100.00;99911.97;5001079;28;20042;-74
2023/07/26 00:03:30;;;;;;;4.72;2.42;;;;;;;15.11;100.00;99913.34;4984187;28;20148;-73
2023/07/26 00:06:00;;;;;;;4.95;2.22;;;;;;;15.06;100.00;99909.19;4989384;28;20408;-73
2023/07/26 00:08:29;;;;;;;3.97;2.17;;;;;;;15.06;100.00;99924.34;5000724;28;20038;-73
2023/07/26 00:10:59;;;;;;;4.82;2.50;;;;;;;15.08;100.00;99915.28;5001450;28;20132;-73
2023/07/26 00:13:27;;;;;;;5.55;1.92;;;;;;;15.10;100.00;99917.84;4997777;28;20073;-73
2023/07/26 00:15:55;;;;;;;4.60;1.95;;;;;;;15.16;100.00;99912.03;4986701;28;20063;-72
2023/07/26 00:18:23;;;;;;;3.67;2.15;;;;;;;15.22;100.00;99906.25;5003071;28;20085;-73
2023/07/26 00:20:50;;;;;;;5.88;2.22;;;;;;;15.28;100.00;99912.94;5002710;28;20053;-73
2023/07/26 00:23:18;;;;;;;5.03;2.35;;;;;;;15.28;100.00;99911.13;4994817;28;20430;-73
2023/07/26 00:25:47;;;;;;;4.57;2.00;;;;;;;15.37;100.00;99922.94;4989269;28;20037;-73
2023/07/26 00:28:15;;;;;;;3.03;2.08;;;;;;;15.39;100.00;99913.88;5007005;28;20061;-72
2023/07/26 00:30:44;;;;;;;3.20;2.20;;;;;;;15.44;100.00;99922.34;4994607;28;20513;-74
2023/07/26 00:33:12;;;;;;;5.40;2.05;;;;;;;15.47;100.00;99917.75;5002798;28;20726;-74
2023/07/26 00:35:42;;;;;;;7.53;2.20;;;;;;;15.48;100.00;99928.31;4990077;28;20045;-73
2023/07/26 00:38:11;;;;;;;4.80;2.00;;;;;;;15.44;100.00;99918.84;4989024;28;20054;-73
2023/07/26 00:40:39;;;;;;;5.20;2.53;;;;;;;15.47;100.00;99931.94;4996276;28;20069;-73
2023/07/26 00:43:11;;;;;;;;;;;;;;;15.47;100.00;99931.94;4999768;28;20069;-73
2023/07/26 00:45:40;;;;;;;4.78;2.10;;;;;;;15.51;100.00;99937.91;4992631;28;19976;-73
2023/07/26 00:48:12;;;;;;;4.47;2.00;;;;;;;15.49;100.00;99931.84;4991209;28;20092;-73
2023/07/26 00:50:42;;;;;;;3.90;2.40;;;;;;;15.49;100.00;99930.03;4997874;28;20042;-73
2023/07/26 00:53:10;;;;;;;3.58;1.70;;;;;;;15.56;100.00;99944.66;4998133;28;20111;-73
2023/07/26 00:55:38;;;;;;;4.90;2.10;;;;;;;15.56;100.00;99947.34;4996559;28;20493;-72
2023/07/26 00:58:07;;;;;;;5.32;2.08;;;;;;;15.55;100.00;99944.75;4996141;28;20046;-72
2023/07/26 01:00:40;;;;;;;3.92;2.00;;;;;;;15.54;100.00;99940.38;5004393;28;20038;-73
2023/07/26 01:03:09;;;;;;;3.10;1.95;;;;;;;15.59;100.00;99946.22;4992709;28;20050;-72
2023/07/26 01:05:45;;;;;;;4.28;1.90;;;;;;;15.57;100.00;99941.03;5002672;28;20424;-72
2023/07/26 01:08:20;;;;;;;5.20;2.22;;;;;;;15.60;100.00;99946.13;5007664;28;20141;-74
2023/07/26 01:10:52;;;;;;;4.70;1.98;;;;;;;15.61;100.00;99949.63;5033329;28;20068;-73
2023/07/26 01:13:29;;;;;;;6.00;1.70;;;;;;;15.58;100.00;99950.75;5017463;28;20064;-74
2023/07/26 01:15:59;;;;;;;4.05;1.98;;;;;;;15.56;100.00;99950.00;4994033;28;20046;-73
2023/07/26 01:18:29;;;;;;;1.92;1.70;;;;;;;15.54;100.00;99959.91;4997824;28;20057;-72
2023/07/26 01:20:56;;;;;;;4.05;2.08;;;;;;;15.51;100.00;99960.13;4993172;28;20050;-74
2023/07/26 01:23:26;;;;;;;3.92;1.80;;;;;;;15.47;100.00;99952.44;4996274;28;20703;-74
2023/07/26 01:25:55;;;;;;;3.70;2.20;;;;;;;15.36;100.00;99935.44;4978383;28;20061;-74
2023/07/26 01:28:23;;;;;;;5.15;2.00;;;;;;;15.45;100.00;99960.56;4996900;28;20465;-76
2023/07/26 01:30:53;;;;;;;3.55;1.73;;;;;;;15.44;100.00;99958.84;4967656;28;20113;-74
2023/07/26 01:33:23;;;;;;;3.47;1.70;;;;;;;15.46;100.00;99948.94;4994245;28;20076;-75
2023/07/26 01:35:52;;;;;;;5.55;2.00;;;;;;;15.46;100.00;99946.25;4989811;28;21537;-74
2023/07/26 01:38:22;;;;;;;3.28;1.85;;;;;;;15.45;100.00;99949.88;5004824;28;20046;-73
2023/07/26 01:40:53;;;;;;;5.68;2.50;;;;;;;15.48;100.00;99960.34;5014458;28;20089;-73
2023/07/26 01:43:23;;;;;;;3.08;1.80;;;;;;;15.49;100.00;99956.72;4993892;28;20053;-74
2023/07/26 01:45:50;;;;;;;3.05;1.70;;;;;;;15.44;100.00;99954.38;5004019;28;20038;-74
2023/07/26 01:48:18;;;;;;;2.60;1.80;;;;;;;15.47;100.00;99963.97;4998447;28;20050;-74
2023/07/26 01:50:47;;;;;;;2.05;1.60;;;;;;;15.46;100.00;99956.94;4981816;28;20050;-74
2023/07/26 01:53:14;;;;;;;4.90;1.83;;;;;;;15.45;100.00;99963.22;5002713;28;20053;-74
2023/07/26 01:55:43;;;;;;;4.03;1.95;;;;;;;15.44;100.00;99959.72;4991689;28;20048;-74
2023/07/26 01:58:13;;;;;;;4.47;1.70;;;;;;;15.40;100.00;99966.25;4997215;28;20060;-74
2023/07/26 02:00:42;;;;;;;2.10;1.70;;;;;;;15.36;100.00;99972.78;5018014;28;20038;-74
2023/07/26 02:03:14;;;;;;;3.88;1.70;;;;;;;15.28;100.00;99960.94;5016879;28;20042;-73
2023/07/26 02:05:44;;;;;;;3.67;1.52;;;;;;;15.27;100.00;99961.91;5001055;28;20035;-73
2023/07/26 02:08:13;;;;;;;3.95;1.70;;;;;;;15.23;100.00;99963.13;5003344;28;20042;-74
2023/07/26 02:10:41;;;;;;;4.30;1.73;;;;;;;15.19;100.00;99964.31;5004101;28;20042;-74
2023/07/26 02:13:09;;;;;;;3.00;1.70;;;;;;;15.13;100.00;99972.75;5014821;28;20498;-74
2023/07/26 02:15:39;;;;;;;3.25;1.83;;;;;;;15.02;100.00;99971.72;5019499;28;20046;-73
2023/07/26 02:18:08;;;;;;;2.42;1.90;;;;;;;14.99;100.00;99969.25;4983799;28;20057;-74
2023/07/26 02:20:37;;;;;;;2.97;1.73;;;;;;;14.94;100.00;99976.75;5001166;28;20049;-73
2023/07/26 02:23:05;;;;;;;3.97;1.70;;;;;;;14.95;100.00;99972.28;5007194;28;20526;-74
2023/07/26 02:25:35;;;;;;;3.90;1.88;;;;;;;14.91;100.00;99971.63;4991075;28;20057;-73
2023/07/26 02:28:03;;;;;;;3.33;1.75;;;;;;;14.86;100.00;99976.44;4994198;28;20103;-74
2023/07/26 02:30:33;;;;;;;3.28;1.70;;;;;;;14.82;100.00;99982.09;5006807;28;20124;-73
2023/07/26 02:33:03;;;;;;;3.22;1.88;;;;;;;14.77;100.00;99987.75;4994351;28;20050;-73
2023/07/26 02:35:31;;;;;;;2.75;1.70;;;;;;;14.68;100.00;99975.06;5012940;28;20104;-73
2023/07/26 02:37:59;;;;;;;5.68;1.75;;;;;;;14.65;100.00;99983.28;4985705;28;20052;-73
2023/07/26 02:40:30;;;;;;;4.20;2.10;;;;;;;14.58;100.00;99980.19;5003897;28;20549;-74
2023/07/26 02:42:58;;;;;;;3.28;2.00;;;;;;;14.55;100.00;99979.56;4984492;28;20042;-74
2023/07/26 02:45:26;;;;;;;3.53;2.00;;;;;;;14.50;100.00;99965.69;4999556;28;20084;-74
2023/07/26 02:47:54;;;;;;;5.03;2.50;;;;;;;14.49;100.00;99979.97;4983873;28;20414;-74
2023/07/26 02:50:24;;;;;;;2.85;1.90;;;;;;;14.41;100.00;99977.00;4996638;28;20111;-74
2023/07/26 02:52:53;;;;;;;;;;;;;;;14.43;100.00;99983.09;5005612;28;20064;-74
2023/07/26 02:55:20;;;;;;;3.90;1.90;;;;;;;14.42;100.00;99978.72;5006031;28;19980;-74
2023/07/26 02:57:49;;;;;;;3.13;1.90;;;;;;;14.46;100.00;99990.88;4986611;28;20039;-74
2023/07/26 03:00:18;;;;;;;4.65;1.92;;;;;;;14.45;100.00;99978.50;4992625;28;20415;-75
2023/07/26 03:02:47;;;;;;;4.97;1.98;;;;;;;14.44;100.00;99979.47;4981189;28;20453;-73
2023/07/26 03:05:19;;;;;;;4.13;2.05;;;;;;;14.45;100.00;99994.50;5004263;28;20053;-74
2023/07/26 03:07:49;;;;;;;4.20;2.15;;;;;;;14.44;100.00;99995.44;4965710;28;20046;-74
2023/07/26 03:10:19;;;;;;;2.40;1.77;;;;;;;14.42;100.00;99992.03;4999961;28;20050;-74
2023/07/26 03:12:47;;;;;;;3.80;1.75;;;;;;;14.43;100.00;99993.75;5005855;28;20076;-74
2023/07/26 03:15:15;;;;;;;3.40;1.98;;;;;;;14.42;100.00;99997.34;4997452;28;20038;-73
2023/07/26 03:17:43;;;;;;;4.13;2.30;;;;;;;14.43;100.00;100007.91;4987046;28;20039;-73
2023/07/26 03:20:11;;;;;;;3.88;1.83;;;;;;;14.39;100.00;99999.25;4998659;28;20050;-74
2023/07/26 03:22:40;;;;;;;3.97;2.17;;;;;;;14.34;100.00;99993.38;5002254;28;20049;-73
2023/07/26 03:25:11;;;;;;;4.65;1.98;;;;;;;14.37;100.00;100003.81;4987754;28;20050;-75
2023/07/26 03:27:41;;;;;;;3.50;1.70;;;;;;;14.38;100.00;100010.84;5001579;23;20057;31
2023/07/26 03:30:10;;;;;;;3.65;1.67;;;;;;;14.39;100.00;100009.91;4964349;28;20057;-77
2023/07/26 03:32:38;;;;;;;5.25;2.03;;;;;;;14.44;100.00;100008.75;4965420;28;20074;-77
2023/07/26 03:35:08;;;;;;;5.22;1.80;;;;;;;14.46;100.00;100006.84;4963027;28;20047;-77
2023/07/26 03:37:36;;;;;;;2.17;1.60;;;;;;;14.43;100.00;100005.25;4965213;28;21540;-77
2023/07/26 03:40:05;;;;;;;4.00;1.85;;;;;;;14.50;100.00;100013.66;4953865;29;20036;-75
2023/07/26 03:42:35;;;;;;;4.70;1.90;;;;;;;14.48;100.00;99996.94;4917840;29;20047;-77
2023/07/26 03:45:04;;;;;;;4.70;1.70;;;;;;;14.55;100.00;100007.06;4952450;29;20458;-77
2023/07/26 03:47:32;;;;;;;4.07;1.85;;;;;;;14.66;100.00;100025.81;4940546;29;20040;-76
2023/07/26 03:50:01;;;;;;;3.95;1.80;;;;;;;14.64;100.00;100019.72;4947322;28;20264;-76
2023/07/26 03:52:32;;;;;;;6.67;2.40;;;;;;;14.48;100.00;99994.28;4954384;28;20182;-77
2023/07/26 03:55:00;;;;;;;3.58;2.33;;;;;;;14.61;100.00;100009.31;4970284;28;20054;-75
2023/07/26 03:57:30;;;;;;;4.20;2.40;;;;;;;14.55;100.00;100003.53;4929711;29;20134;-77
2023/07/26 03:59:59;;;;;;;4.05;2.03;;;;;;;14.56;100.00;100007.91;4946648;29;20423;-77
2023/07/26 04:02:27;;;;;;;5.38;2.10;;;;;;;14.73;100.00;100018.25;4959966;28;20043;-77
2023/07/26 04:04:55;;;;;;;4.00;1.83;;;;;;;14.78;100.00;100009.94;4952519;28;20055;-77
2023/07/26 04:07:25;;;;;;;3.65;1.85;;;;;;;14.78;100.00;100023.25;4942092;28;20110;-76
2023/07/26 04:09:53;;;;;;;5.35;2.00;;;;;;;14.69;100.00;100014.09;4962009;28;20460;-76
2023/07/26 04:12:22;;;;;;;4.07;1.98;;;;;;;14.64;100.00;99992.22;4952548;28;20043;-76
2023/07/26 04:14:52;;;;;;;2.78;2.00;;;;;;;14.76;100.00;100007.38;4950281;29;20054;-74
2023/07/26 04:17:21;;;;;;;5.28;2.03;;;;;;;14.95;100.00;100022.94;4947889;29;20036;-76
2023/07/26 04:19:49;;;;;;;4.72;1.88;;;;;;;14.97;100.00;100021.84;4960896;28;20051;-77
2023/07/26 04:22:17;;;;;;;3.42;2.25;;;;;;;15.01;100.00;100026.00;4952442;28;20066;-77
2023/07/26 04:24:48;;;;;;;4.75;2.40;;;;;;;15.08;100.00;100024.63;4960627;28;20419;-77
2023/07/26 04:27:16;;;;;;;3.03;2.00;;;;;;;15.18;100.00;100029.28;4964622;28;20055;-78
2023/07/26 04:29:44;;;;;;;2.55;1.95;;;;;;;15.19;100.00;100029.16;4958839;28;20044;-75
2023/07/26 04:32:12;;;;;;;6.78;2.10;;;;;;;15.07;100.00;100014.91;4967904;28;20047;-77
2023/07/26 04:34:42;;;;;;;3.88;2.10;;;;;;;15.11;100.00;100023.50;4962637;28;20122;-77
2023/07/26 04:37:10;;;;;;;5.10;1.85;;;;;;;15.12;100.00;100030.56;4950549;29;20126;-78
2023/07/26 04:39:38;;;;;;;4.80;2.10;;;;;;;15.15;100.00;100040.16;4949133;29;20049;-76
2023/07/26 04:42:07;;;;;;;4.10;2.28;;;;;;;15.13;100.00;100044.75;4946682;29;20519;-76
2023/07/26 04:44:35;;;;;;;7.05;2.15;;;;;;;15.01;100.00;100025.16;4939291;29;20047;-76
2023/07/26 04:47:03;;;;;;;4.82;2.03;;;;;;;15.05;100.00;100032.81;4948017;28;20090;-76
2023/07/26 04:49:32;;;;;;;5.28;2.00;;;;;;;15.08;100.00;100037.94;4946075;28;20049;-76
2023/07/26 04:52:02;;;;;;;7.95;2.38;;;;;;;15.11;100.00;100046.69;4951810;29;20057;-77
2023/07/26 04:54:30;;;;;;;3.90;2.70;;;;;;;15.01;100.00;100027.81;4949260;28;20448;-77
2023/07/26 04:56:57;;;;;;;2.92;1.92;;;;;;;14.98;100.00;100041.34;4952880;29;20040;-76
2023/07/26 04:59:26;;;;;;;3.72;2.25;;;;;;;14.89;100.00;100048.19;4946459;28;20047;-76
2023/07/26 05:01:54;;;;;;;8.38;3.03;;;;;;;14.84;100.00;100050.31;4951961;29;20074;-76
2023/07/26 05:04:24;;;;;;;5.90;2.42;;;;;;;14.85;100.00;100044.03;4951774;28;20047;-76
2023/07/26 05:06:52;;;;;;;;;;;;;;;14.91;100.00;100054.28;4966224;28;20499;-78
2023/07/26 05:09:21;;;;;;;5.50;2.38;;;;;;;14.84;100.00;100018.34;4957642;28;20387;-77
2023/07/26 05:11:49;;;;;;;4.07;2.35;;;;;;;14.93;100.00;100051.50;4955636;28;20253;-77
2023/07/26 05:14:17;;;;;;;4.20;2.55;;;;;;;14.78;100.00;100044.59;4963032;28;20176;-76
2023/07/26 05:16:45;;;;;;;4.00;2.65;;;;;;;14.67;100.00;100038.19;4960485;28;20031;-75
2023/07/26 05:19:13;;;;;;;5.22;2.67;;;;;;;14.66;100.00;100051.59;4938372;29;20107;-76
2023/07/26 05:21:42;;;;;;;4.28;2.30;;;;;;;14.65;100.00;100057.88;4948426;29;20546;-77
2023/07/26 05:24:10;;;;;;;5.10;2.47;;;;;;;14.74;100.00;100059.94;4951738;28;20043;-77
2023/07/26 05:26:39;;;;;;;2.92;2.63;;;;;;;14.80;100.00;100051.50;4961553;28;20107;-76
2023/07/26 05:29:07;;;;;;;6.07;3.10;;;;;;;14.95;100.00;100057.59;4955711;28;20051;-78
2023/07/26 05:31:36;;;;;;;3.45;2.67;;;;;;;15.04;100.00;100046.25;4950200;28;20066;-77
2023/07/26 05:34:05;;;;;;;5.45;2.70;;;;;;;15.05;100.00;100035.50;4951006;28;20047;-76
2023/07/26 05:36:33;;;;;;;4.07;2.47;;;;;;;15.24;100.00;100059.03;4963446;28;20065;-77
2023/07/26 05:39:02;;;;;;;4.32;3.10;;;;;;;15.33;100.00;100063.72;4956611;28;20047;-76
2023/07/26 05:41:31;;;;;;;8.93;2.70;;;;;;;15.21;100.00;100058.41;4949434;29;20046;-77
2023/07/26 05:44:01;;;;;;;4.22;2.78;;;;;;;15.20;100.00;100056.69;4948621;28;20051;-74
2023/07/26 05:46:29;;;;;;;7.28;2.85;;;;;;;15.29;100.00;100067.53;4948537;29;20055;-77
2023/07/26 05:48:58;;;;;;;4.97;2.58;;;;;;;15.36;100.00;100062.63;4941391;28;20047;-76
2023/07/26 05:51:26;;;;;;;3.78;2.45;;;;;;;15.36;100.00;100067.97;4966918;28;20503;-77
2023/07/26 05:53:54;;;;;;;3.88;1.90;;;;;;;15.39;100.00;100067.75;4939111;29;20055;-76
2023/07/26 05:56:21;;;;;;;4.05;2.45;;;;;;;15.35;100.00;100060.94;4976474;28;20035;-76
2023/07/26 05:58:50;;;;;;;8.45;2.40;;;;;;;15.17;100.00;100063.09;4946723;29;20207;-76
2023/07/26 06:01:20;;;;;;;6.75;2.75;;;;;;;15.05;100.00;100079.97;4948684;29;20050;-77
2023/07/26 06:03:50;;;;;;;9.68;3.83;;;;;;;14.91;100.00;100083.59;4951725;29;20130;-76
2023/07/26 06:06:18;;;;;;;8.43;2.67;;;;;;;14.66;100.00;100073.78;4941147;29;20067;-76
2023/07/26 06:08:46;;;;;;;4.40;2.38;;;;;;;14.63;100.00;100083.81;4948596;28;20083;-76
2023/07/26 06:11:15;;;;;;;6.35;2.53;;;;;;;14.66;100.00;100102.22;4941027;29;20452;-76
2023/07/26 06:13:43;;;;;;;5.60;2.45;;;;;;;14.77;100.00;100094.38;4962660;28;20086;-75
2023/07/26 06:16:11;;;;;;;3.75;2.30;;;;;;;14.85;100.00;100099.16;4947948;28;20047;-76
2023/07/26 06:18:40;;;;;;;5.32;2.30;;;;;;;14.88;100.00;100099.81;4954453;28;20051;-76
2023/07/26 06:21:08;;;;;;;8.02;2.88;;;;;;;14.78;100.00;100112.09;4962991;28;20142;-77
2023/07/26 06:23:36;;;;;;;7.72;2.83;;;;;;;14.65;100.00;100114.72;4964560;28;20048;-76
2023/07/26 06:26:04;;;;;;;4.65;3.35;;;;;;;14.53;100.00;100117.34;4966838;28;20420;-77
2023/07/26 06:28:33;;;;;;;7.13;3.05;;;;;;;14.49;100.00;100119.38;4931873;29;20500;-78
2023/07/26 06:31:01;;;;;;;6.50;3.00;;;;;;;14.48;100.00;100132.81;4951920;28;20067;-78
2023/07/26 06:33:29;;;;;;;5.80;3.10;;;;;;;14.44;100.00;100148.16;4939191;29;20118;-77
2023/07/26 06:35:58;;;;;;;5.53;3.42;;;;;;;14.30;100.00;100142.84;4959242;28;20129;-77
2023/07/26 06:38:26;;;;;;;6.28;3.53;;;;;;;14.24;100.00;100145.91;4962173;28;20504;-77
2023/07/26 06:40:55;;;;;;;9.88;4.03;;;;;;;14.17;100.00;100153.44;4918691;29;20134;-78
2023/07/26 06:43:23;;;;;;;9.48;4.18;;;;;;;14.15;100.00;100160.69;4955082;28;20480;-78
2023/07/26 06:45:52;;;;;;;17.15;5.32;;;;;;;14.08;100.00;100162.03;4963316;28;20411;-79
2023/07/26 06:48:22;;;;;;;9.52;4.32;;;;;;;13.56;100.00;100157.38;4950833;28;20099;-78
2023/07/26 06:50:52;;;;;;;12.43;4.28;;;;;;;13.30;100.00;100164.34;4954329;28;20051;-81
2023/07/26 06:53:23;;;;;;;7.03;3.83;;;;;;;13.26;100.00;100151.31;4961609;28;20039;-81
2023/07/26 06:55:51;;;;;;;7.88;3.88;;;;;;;13.21;100.00;100154.28;4974669;28;20058;-78
2023/07/26 06:58:19;;;;;;;9.38;4.35;;;;;;;13.06;100.00;100149.03;4969463;28;20054;-80
2023/07/26 07:00:47;;;;;;;6.18;3.90;;;;;;;12.97;100.00;100150.41;4944883;29;20584;-80
2023/07/26 07:03:15;;;;;;;5.10;4.32;;;;;;;12.94;100.00;100140.81;4965481;28;20066;-80
2023/07/26 07:05:44;;;;;;;5.57;4.05;;;;;;;13.00;100.00;100151.09;4967220;28;20720;-80
2023/07/26 07:08:15;;;;;;;7.53;4.00;;;;;;;12.93;100.00;100139.13;4948980;28;20427;-80
2023/07/26 07:10:45;;;;;;;5.25;3.80;;;;;;;12.99;100.00;100144.06;4965654;28;20043;-79
2023/07/26 07:13:13;;;;;;;7.97;4.43;;;;;;;12.87;100.00;100142.16;4953355;28;20047;-80
2023/07/26 07:15:43;;;;;;;5.80;3.65;;;;;;;12.84;100.00;100150.31;4956933;28;20145;-79
2023/07/26 07:18:11;;;;;;;5.25;3.70;;;;;;;12.72;100.00;100147.53;4958028;29;20054;-80
2023/07/26 07:20:43;;;;;;;4.35;3.60;;;;;;;12.67;100.00;100157.56;4948555;29;20775;-78
2023/07/26 07:23:11;;;;;;;4.68;3.38;;;;;;;12.59;100.00;100158.88;4957923;28;20500;-79
2023/07/26 07:25:39;;;;;;;5.70;3.92;;;;;;;12.55;100.00;100156.50;4957882;29;20047;-79
2023/07/26 07:28:09;;;;;;;5.18;4.32;;;;;;;12.58;100.00;100165.16;4969343;28;20054;-79
2023/07/26 07:30:37;;;;;;;7.03;4.97;;;;;;;12.73;100.00;100160.72;4943823;28;20044;-81
2023/07/26 07:33:07;;;;;;;6.82;4.93;;;;;;;12.98;100.00;100160.97;4965747;28;20052;-80
2023/07/26 07:35:35;;;;;;;9.10;5.10;;;;;;;13.29;100.00;100152.00;4933550;29;20472;-80
2023/07/26 07:38:05;;;;;;;6.35;5.28;;;;;;;13.10;100.00;100130.09;4971801;28;20046;-80
2023/07/26 07:40:34;;;;;;;5.72;4.97;;;;;;;13.20;100.00;100165.00;4959590;28;20115;-79
2023/07/26 07:43:04;;;;;;;7.88;5.05;;;;;;;13.22;100.00;100160.47;4939996;29;20133;-79
2023/07/26 07:45:39;;;;;;;;;;;;;;;13.31;100.00;100170.53;4956544;28;20110;-78
2023/07/26 07:48:08;;;;;;;9.13;5.40;;;;;;;13.33;100.00;100168.63;4960344;28;19933;-80
2023/07/26 07:50:36;;;;;;;9.32;5.18;;;;;;;13.26;100.00;100165.47;4945995;28;20507;-78
2023/07/26 07:53:04;;;;;;;8.88;4.70;;;;;;;13.25;100.00;100149.59;4949349;29;20074;-79
2023/07/26 07:55:38;;;;;;;8.77;5.68;;;;;;;13.32;100.00;100157.13;4938802;29;20190;-80
2023/07/26 07:58:07;;;;;;;9.75;5.55;;;;;;;13.36;100.00;100139.19;4971993;28;20124;-80
2023/07/26 08:00:38;;;;;;;6.72;5.07;;;;;;;13.64;100.00;100157.78;4947969;29;20178;-79
2023/07/26 08:03:07;;;;;;;7.00;4.57;;;;;;;13.63;100.00;100150.75;4945432;29;20662;-79
2023/07/26 08:05:35;;;;;;;6.47;4.38;;;;;;;13.62;100.00;100148.16;4940546;29;20146;-80
2023/07/26 08:08:05;;;;;;;7.13;5.07;;;;;;;13.79;100.00;100141.78;4970647;28;20082;-81
2023/07/26 08:10:33;;;;;;;7.25;4.43;;;;;;;14.11;100.00;100145.88;4960503;28;20040;-81
2023/07/26 08:13:02;;;;;;;6.95;4.32;;;;;;;14.30;100.00;100138.38;4968657;28;20043;-78
2023/07/26 08:15:34;;;;;;;7.43;5.13;;;;;;;14.63;100.00;100151.28;4963492;29;20075;-79
2023/07/26 08:18:06;;;;;;;6.88;4.55;;;;;;;14.84;100.00;100153.44;4982986;28;20471;-78
2023/07/26 08:20:34;;;;;;;9.77;4.93;;;;;;;15.07;100.00;100158.06;4958581;29;20047;-79
2023/07/26 08:23:03;;;;;;;14.18;6.22;;;;;;;15.25;100.00;100153.25;4973826;28;20125;-78
2023/07/26 08:25:31;;;;;;;10.45;6.20;;;;;;;15.36;100.00;100148.88;4963018;29;20047;-78
2023/07/26 08:27:59;;;;;;;8.50;6.13;;;;;;;15.37;100.00;100152.38;4958821;29;20047;-79
2023/07/26 08:30:28;;;;;;;10.27;6.38;;;;;;;15.47;100.00;100148.09;4959887;28;20043;-79
2023/07/26 08:32:56;;;;;;;7.55;6.22;;;;;;;15.53;100.00;100154.81;4949310;29;20142;-78
2023/07/26 08:35:26;;;;;;;7.35;6.03;;;;;;;15.36;100.00;100162.22;4966028;28;20126;-79
2023/07/26 08:37:54;;;;;;;6.95;5.22;;;;;;;15.15;100.00;100158.38;4936275;29;20053;-80
2023/07/26 08:40:23;;;;;;;6.35;5.75;;;;;;;15.11;100.00;100161.38;4941119;28;20858;-80
2023/07/26 08:42:53;;;;;;;11.25;5.22;;;;;;;15.29;100.00;100163.59;4961125;28;20079;-78
2023/07/26 08:45:23;;;;;;;7.25;4.97;;;;;;;15.59;100.00;100149.91;4962338;28;20044;-77
2023/07/26 08:47:53;;;;;;;6.05;4.35;;;;;;;15.97;100.00;100151.66;4950286;28;20051;-79
2023/07/26 08:50:21;;;;;;;;;;;;;;;16.35;100.00;100152.34;4942224;28;20111;-80
2023/07/26 08:52:50;;;;;;;6.35;4.10;;;;;;;16.55;100.00;100148.16;4972277;28;20355;-79
2023/07/26 08:55:20;;;;;;;6.45;4.38;;;;;;;16.73;100.00;100151.28;4975095;28;20063;-80
2023/07/26 08:57:48;;;;;;;8.02;4.05;;;;;;;16.73;100.00;100138.78;4952531;29;20488;-80
2023/07/26 09:00:19;;;;;;;5.60;3.70;;;;;;;16.96;100.00;100161.09;4950648;28;20035;-81
2023/07/26 09:02:49;;;;;;;5.40;3.40;;;;;;;17.25;100.00;100155.31;4959046;28;20705;-80
2023/07/26 09:05:18;;;;;;;7.28;4.10;;;;;;;17.50;100.00;100163.94;4971765;28;20046;-81
2023/07/26 09:07:49;;;;;;;5.57;4.07;;;;;;;17.48;100.00;100165.03;4956667;29;20153;-82
2023/07/26 09:10:24;;;;;;;5.97;3.78;;;;;;;17.35;100.00;100161.63;4951654;28;20058;-80
2023/07/26 09:12:52;;;;;;;5.65;4.43;;;;;;;17.15;100.00;100160.53;4970191;28;20039;-82
2023/07/26 09:15:20;;;;;;;5.20;3.67;;;;;;;17.14;100.00;100157.00;4953735;29;20043;-81
2023/07/26 09:17:49;;;;;;;6.38;3.70;;;;;;;16.79;100.00;100164.22;4966933;28;20529;-81
2023/07/26 09:20:22;;;;;;;4.55;3.50;;;;;;;16.62;100.00;100159.25;4928523;29;20066;-80
2023/07/26 09:23:01;;;;;;;6.05;3.50;;;;;;;16.58;100.00;100160.44;4969641;28;20054;-80
2023/07/26 09:25:33;;;;;;;8.93;4.28;;;;;;;16.77;100.00;100144.75;4949689;29;20051;-81
2023/07/26 09:28:15;;;;;;;5.97;3.70;;;;;;;16.91;100.00;100155.25;4980195;23;20055;-86
2023/07/26 09:30:54;;;;;;;7.03;3.60;;;;;;;17.03;100.00;100162.31;5044128;28;20113;-85
2023/07/26 09:33:29;;;;;;;5.20;2.97;;;;;;;16.93;100.00;100141.75;5043883;28;20580;-85
2023/07/26 09:36:01;;;;;;;5.50;3.75;;;;;;;16.74;100.00;100139.63;5027018;28;20041;-86
2023/07/26 09:44:28;;;;;;;8.15;4.18;;;;;;;16.43;100.00;100131.22;5015069;28;20035;-83
2023/07/26 09:47:00;;;;;;;5.75;3.03;;;;;;;16.78;100.00;100119.72;5031202;28;20050;-85
2023/07/26 09:49:34;;;;;;;3.03;2.50;;;;;;;17.14;100.00;100129.38;5010062;28;20118;-85
2023/07/26 09:52:14;;;;;;;4.65;3.20;;;;;;;17.42;100.00;100130.72;5007515;28;20085;-85
2023/07/26 09:54:46;;;;;;;6.55;3.05;;;;;;;17.48;100.00;100120.38;5000308;28;20046;-85
2023/07/26 09:57:22;;;;;;;7.38;3.05;;;;;;;17.51;100.00;100124.63;5015943;28;20046;-83
2023/07/26 09:59:53;;;;;;;4.57;3.45;;;;;;;17.62;100.00;100131.84;4998803;28;20132;-86
2023/07/26 10:02:27;;;;;;;4.03;3.20;;;;;;;17.71;100.00;100133.78;5013111;28;20049;-84
2023/07/26 10:05:06;;;;;;;5.30;2.92;;;;;;;17.82;100.00;100106.97;5019193;28;20065;-84
2023/07/26 10:07:43;;;;;;;7.32;3.47;;;;;;;18.06;99.53;100121.06;5011648;28;20042;-85
2023/07/26 10:13:17;;;;;;;5.78;3.35;;;;;;;17.86;100.00;100125.34;5011328;28;20057;-85
2023/07/26 10:16:01;;;;;;;4.97;2.92;;;;;;;17.62;98.25;100105.06;5009321;28;20046;-86
2023/07/26 10:18:49;;;;;;;4.63;2.92;;;;;;;17.64;100.00;100136.09;5007967;28;20072;-86
2023/07/26 10:21:24;;;;;;;6.30;2.63;;;;;;;17.32;100.00;100130.59;5020854;28;20060;-87
2023/07/26 10:23:58;;;;;;;4.50;2.63;;;;;;;16.99;100.00;100120.75;5028719;28;20046;-86
2023/07/26 10:29:29;;;;;;;6.32;2.78;;;;;;;16.73;100.00;100130.75;5128855;27;20735;-76
2023/07/26 10:32:02;;;;;;;7.97;3.05;;;;;;;16.66;100.00;100136.72;5096360;28;20036;-77
2023/07/26 10:34:30;;;;;;;10.93;7.88;;;;;;;16.77;100.00;100131.38;5128007;27;20146;-78
2023/07/26 10:36:58;;;;;;;7.50;3.15;;;;;;;16.79;100.00;100132.97;5114717;28;20452;-78
2023/07/26 10:39:33;;;;;;;4.05;2.72;;;;;;;16.68;100.00;100116.06;5108144;28;20957;-77
2023/07/26 10:42:03;;;;;;;5.25;2.97;;;;;;;16.73;100.00;100117.38;5094279;28;20125;-78
2023/07/26 10:44:40;;;;;;;6.47;3.05;;;;;;;16.76;100.00;100116.31;5107591;27;20518;-78
2023/07/26 10:47:08;;;;;;;6.30;2.95;;;;;;;16.81;100.00;100125.69;5108317;28;20040;-78
2023/07/26 10:49:37;;;;;;;4.22;3.38;;;;;;;17.01;100.00;100117.91;5106971;28;20492;-78
2023/07/26 10:52:07;;;;;;;3.70;3.03;;;;;;;17.17;100.00;100116.59;5098166;28;20495;-78
2023/07/26 10:54:37;;;;;;;6.75;3.60;;;;;;;17.37;100.00;100103.47;5105793;28;20713;-77
2023/07/26 10:57:23;;;;;;;6.35;3.22;;;;;;;17.49;100.00;100103.34;5120210;27;20048;-78
2023/07/26 11:00:10;;;;;;;6.47;3.10;;;;;;;17.65;100.00;100102.13;5114701;28;20040;-77
2023/07/26 11:02:44;;;;;;;4.03;2.92;;;;;;;17.83;97.08;100088.09;5107927;28;20495;-76
2023/07/26 11:05:16;;;;;;;4.90;3.28;;;;;;;17.63;100.00;100071.94;5106326;28;20071;-77
2023/07/26 11:07:55;;;;;;;5.97;3.03;;;;;;;17.76;100.00;100086.06;5110823;28;20079;-78
2023/07/26 11:10:24;;;;;;;6.07;2.78;;;;;;;17.72;100.00;100096.16;5118593;27;20053;-76
2023/07/26 11:13:12;;;;;;;4.88;2.95;;;;;;;17.54;100.00;100081.56;5105282;28;20392;-76
2023/07/26 11:15:43;;;;;;;7.25;2.80;;;;;;;17.58;100.00;100101.75;5106814;28;20065;-77
2023/07/26 11:18:38;;;;;;;6.00;2.90;;;;;;;17.51;100.00;100100.53;5105422;28;20063;-77
2023/07/26 11:21:06;;;;;;;5.15;2.97;;;;;;;17.33;100.00;100089.47;5120418;27;20048;-76
2023/07/26 11:23:39;;;;;;;5.63;3.30;;;;;;;17.07;100.00;100088.88;5113023;27;20579;-76
2023/07/26 11:26:07;;;;;;;6.20;3.30;;;;;;;16.77;100.00;100101.97;5084292;28;20110;-78
2023/07/26 11:28:35;;;;;;;6.40;3.30;;;;;;;16.43;100.00;100093.81;5093519;28;20059;-77
2023/07/26 11:31:07;;;;;;;4.85;2.88;;;;;;;15.94;100.00;100109.13;5110068;28;20048;-78
2023/07/26 11:33:36;;;;;;;4.97;2.90;;;;;;;15.33;100.00;100111.72;5115629;27;20047;-77
2023/07/26 11:36:08;;;;;;;4.88;3.40;;;;;;;14.95;100.00;100109.06;5107753;28;20055;-76
2023/07/26 11:38:42;;;;;;;7.90;3.60;;;;;;;14.78;100.00;100112.09;5106960;28;20053;-77
2023/07/26 11:41:11;;;;;;;7.03;3.53;;;;;;;14.70;100.00;100112.59;5102398;27;20059;-77
2023/07/26 11:43:41;;;;;;;6.70;3.70;;;;;;;14.58;100.00;100096.59;5093071;28;20044;-77
2023/07/26 11:46:13;;;;;;;7.40;4.40;;;;;;;14.71;100.00;100102.78;5108197;27;20044;-76